sensor_id;sensor_type;location;lat;lon;timestamp;P1;durP1;ratioP1;P2;durP2;ratioP2
58466;SDS011;44255;49.244;7.726;2022-12-07T04:30:57;12.75;;;6.82;;
58466;SDS011;44255;49.244;7.726;2022-12-07T04:33:22;15.23;;;7.15;;
58466;SDS011;44255;49.244;7.726;2022-12-07T04:35:47;10.93;;;6.32;;
58466;SDS011;44255;49.244;7.726;2022-12-07T04:38:12;12.33;;;7.10;;
58466;SDS011;44255;49.244;7.726;2022-12-07T04:40:38;15.27;;;6.93;;
58466;SDS011;44255;49.244;7.726;2022-12-07T04:43:03;12.40;;;6.83;;
58466;SDS011;44255;49.244;7.726;2022-12-07T04:45:29;13.68;;;6.75;;
58466;SDS011;44255;49.244;7.726;2022-12-07T04:47:55;14.88;;;7.05;;
58466;SDS011;44255;49.244;7.726;2022-12-07T04:50:20;11.75;;;6.50;;
58466;SDS011;44255;49.244;7.726;2022-12-07T04:52:45;13.05;;;7.07;;
58466;SDS011;44255;49.244;7.726;2022-12-07T04:55:10;12.05;;;6.88;;
58466;SDS011;44255;49.244;7.726;2022-12-07T04:57:36;12.50;;;6.88;;
58466;SDS011;44255;49.244;7.726;2022-12-07T05:00:01;10.77;;;6.68;;
58466;SDS011;44255;49.244;7.726;2022-12-07T05:02:27;13.05;;;6.32;;
58466;SDS011;44255;49.244;7.726;2022-12-07T05:04:52;11.25;;;6.70;;
58466;SDS011;44255;49.244;7.726;2022-12-07T05:07:17;10.98;;;6.13;;
58466;SDS011;44255;49.244;7.726;2022-12-07T05:09:42;14.45;;;6.55;;
58466;SDS011;44255;49.244;7.726;2022-12-07T05:12:08;12.85;;;7.53;;
58466;SDS011;44255;49.244;7.726;2022-12-07T05:14:33;12.03;;;6.77;;
58466;SDS011;44255;49.244;7.726;2022-12-07T05:16:58;12.53;;;7.43;;
58466;SDS011;44255;49.244;7.726;2022-12-07T05:19:23;16.38;;;8.63;;
58466;SDS011;44255;49.244;7.726;2022-12-07T05:21:49;21.90;;;11.10;;
58466;SDS011;44255;49.244;7.726;2022-12-07T05:24:14;17.52;;;8.88;;
58466;SDS011;44255;49.244;7.726;2022-12-07T05:26:41;18.63;;;8.88;;
58466;SDS011;44255;49.244;7.726;2022-12-07T05:29:07;15.02;;;8.35;;
58466;SDS011;44255;49.244;7.726;2022-12-07T05:31:35;15.70;;;8.95;;
58466;SDS011;44255;49.244;7.726;2022-12-07T05:34:00;17.35;;;8.25;;
58466;SDS011;44255;49.244;7.726;2022-12-07T05:36:25;13.82;;;7.47;;
58466;SDS011;44255;49.244;7.726;2022-12-07T05:38:53;15.60;;;7.28;;
58466;SDS011;44255;49.244;7.726;2022-12-07T05:41:18;13.17;;;7.27;;
58466;SDS011;44255;49.244;7.726;2022-12-07T05:44:02;13.75;;;7.15;;
58466;SDS011;44255;49.244;7.726;2022-12-07T05:46:28;14.77;;;7.30;;
58466;SDS011;44255;49.244;7.726;2022-12-07T05:48:53;16.63;;;8.45;;
58466;SDS011;44255;49.244;7.726;2022-12-07T05:51:18;19.17;;;8.48;;
58466;SDS011;44255;49.244;7.726;2022-12-07T05:53:44;14.43;;;8.52;;
58466;SDS011;44255;49.244;7.726;2022-12-07T05:56:10;15.20;;;8.10;;
58466;SDS011;44255;49.244;7.726;2022-12-07T05:58:35;14.20;;;7.63;;
58466;SDS011;44255;49.244;7.726;2022-12-07T06:01:19;13.93;;;8.13;;
58466;SDS011;44255;49.244;7.726;2022-12-07T06:03:44;18.20;;;8.37;;
58466;SDS011;44255;49.244;7.726;2022-12-07T06:06:10;16.33;;;8.65;;
58466;SDS011;44255;49.244;7.726;2022-12-07T06:08:35;18.50;;;8.38;;
58466;SDS011;44255;49.244;7.726;2022-12-07T06:11:01;17.52;;;8.93;;
58466;SDS011;44255;49.244;7.726;2022-12-07T06:13:44;14.63;;;7.38;;
58466;SDS011;44255;49.244;7.726;2022-12-07T06:16:10;13.37;;;7.63;;
58466;SDS011;44255;49.244;7.726;2022-12-07T06:18:35;15.05;;;7.53;;
58466;SDS011;44255;49.244;7.726;2022-12-07T06:21:00;17.50;;;8.10;;
58466;SDS011;44255;49.244;7.726;2022-12-07T06:23:25;13.80;;;7.68;;
58466;SDS011;44255;49.244;7.726;2022-12-07T06:25:51;16.27;;;8.95;;
58466;SDS011;44255;49.244;7.726;2022-12-07T06:28:16;15.38;;;8.68;;
58466;SDS011;44255;49.244;7.726;2022-12-07T06:30:41;16.00;;;8.67;;
58466;SDS011;44255;49.244;7.726;2022-12-07T06:33:06;16.27;;;8.40;;
58466;SDS011;44255;49.244;7.726;2022-12-07T06:35:32;17.73;;;8.70;;
58466;SDS011;44255;49.244;7.726;2022-12-07T06:37:58;20.48;;;11.48;;
58466;SDS011;44255;49.244;7.726;2022-12-07T06:40:23;19.38;;;11.23;;
58466;SDS011;44255;49.244;7.726;2022-12-07T06:42:48;17.23;;;9.70;;
58466;SDS011;44255;49.244;7.726;2022-12-07T06:45:13;17.00;;;9.10;;
58466;SDS011;44255;49.244;7.726;2022-12-07T06:47:39;16.20;;;9.35;;
58466;SDS011;44255;49.244;7.726;2022-12-07T06:50:04;16.97;;;10.07;;
58466;SDS011;44255;49.244;7.726;2022-12-07T06:52:32;19.80;;;9.45;;
58466;SDS011;44255;49.244;7.726;2022-12-07T06:54:58;16.98;;;9.20;;
58466;SDS011;44255;49.244;7.726;2022-12-07T06:57:23;15.80;;;8.43;;
58466;SDS011;44255;49.244;7.726;2022-12-07T06:59:49;15.98;;;8.48;;
58466;SDS011;44255;49.244;7.726;2022-12-07T07:02:14;15.15;;;7.90;;
58466;SDS011;44255;49.244;7.726;2022-12-07T07:04:39;18.77;;;9.23;;
58466;SDS011;44255;49.244;7.726;2022-12-07T07:07:04;25.65;;;10.98;;
58466;SDS011;44255;49.244;7.726;2022-12-07T07:09:30;16.02;;;8.90;;
58466;SDS011;44255;49.244;7.726;2022-12-07T07:11:55;17.85;;;9.25;;
58466;SDS011;44255;49.244;7.726;2022-12-07T07:14:20;39.58;;;17.35;;
58466;SDS011;44255;49.244;7.726;2022-12-07T07:19:11;19.05;;;9.30;;
58466;SDS011;44255;49.244;7.726;2022-12-07T07:21:37;19.08;;;9.77;;
58466;SDS011;44255;49.244;7.726;2022-12-07T07:24:02;25.95;;;11.15;;
58466;SDS011;44255;49.244;7.726;2022-12-07T07:26:27;21.65;;;10.80;;
58466;SDS011;44255;49.244;7.726;2022-12-07T07:28:53;20.55;;;9.65;;
58466;SDS011;44255;49.244;7.726;2022-12-07T07:31:18;29.13;;;13.43;;
58466;SDS011;44255;49.244;7.726;2022-12-07T07:33:44;26.00;;;12.68;;
58466;SDS011;44255;49.244;7.726;2022-12-07T07:36:11;31.27;;;15.43;;
58466;SDS011;44255;49.244;7.726;2022-12-07T07:38:36;34.97;;;15.33;;
58466;SDS011;44255;49.244;7.726;2022-12-07T07:41:02;30.77;;;15.27;;
58466;SDS011;44255;49.244;7.726;2022-12-07T07:43:27;30.03;;;14.17;;
58466;SDS011;44255;49.244;7.726;2022-12-07T07:45:52;30.00;;;14.73;;
58466;SDS011;44255;49.244;7.726;2022-12-07T07:48:18;26.10;;;11.93;;
58466;SDS011;44255;49.244;7.726;2022-12-07T07:50:43;32.75;;;14.93;;
58466;SDS011;44255;49.244;7.726;2022-12-07T07:53:08;30.70;;;15.60;;
58466;SDS011;44255;49.244;7.726;2022-12-07T07:55:33;31.48;;;15.80;;
58466;SDS011;44255;49.244;7.726;2022-12-07T07:57:59;51.70;;;19.98;;
58466;SDS011;44255;49.244;7.726;2022-12-07T08:00:24;21.70;;;10.60;;
58466;SDS011;44255;49.244;7.726;2022-12-07T08:02:49;19.58;;;10.32;;
58466;SDS011;44255;49.244;7.726;2022-12-07T08:05:15;26.55;;;12.80;;
58466;SDS011;44255;49.244;7.726;2022-12-07T08:07:41;17.83;;;9.13;;
58466;SDS011;44255;49.244;7.726;2022-12-07T08:10:07;20.10;;;8.90;;
58466;SDS011;44255;49.244;7.726;2022-12-07T08:12:38;18.63;;;10.20;;
58466;SDS011;44255;49.244;7.726;2022-12-07T08:15:24;17.63;;;8.95;;
58466;SDS011;44255;49.244;7.726;2022-12-07T08:17:51;17.85;;;8.82;;
58466;SDS011;44255;49.244;7.726;2022-12-07T08:20:16;19.93;;;8.97;;
58466;SDS011;44255;49.244;7.726;2022-12-07T08:22:41;22.42;;;9.50;;
58466;SDS011;44255;49.244;7.726;2022-12-07T08:25:06;16.93;;;9.07;;
58466;SDS011;44255;49.244;7.726;2022-12-07T08:27:32;18.23;;;9.90;;
58466;SDS011;44255;49.244;7.726;2022-12-07T08:29:57;19.15;;;9.63;;
58466;SDS011;44255;49.244;7.726;2022-12-07T08:32:23;18.30;;;9.60;;
58466;SDS011;44255;49.244;7.726;2022-12-07T08:34:48;23.90;;;10.93;;
58466;SDS011;44255;49.244;7.726;2022-12-07T08:37:14;19.90;;;10.00;;
58466;SDS011;44255;49.244;7.726;2022-12-07T08:39:39;25.70;;;11.95;;
58466;SDS011;44255;49.244;7.726;2022-12-07T08:42:04;29.07;;;13.23;;
58466;SDS011;44255;49.244;7.726;2022-12-07T08:44:29;23.95;;;12.02;;
58466;SDS011;44255;49.244;7.726;2022-12-07T08:46:58;28.42;;;11.80;;
58466;SDS011;44255;49.244;7.726;2022-12-07T08:49:31;30.10;;;14.45;;
58466;SDS011;44255;49.244;7.726;2022-12-07T08:52:05;25.30;;;12.18;;
58466;SDS011;44255;49.244;7.726;2022-12-07T08:54:31;23.65;;;11.60;;
58466;SDS011;44255;49.244;7.726;2022-12-07T08:57:01;27.70;;;12.68;;
58466;SDS011;44255;49.244;7.726;2022-12-07T08:59:27;30.38;;;13.50;;
58466;SDS011;44255;49.244;7.726;2022-12-07T09:04:19;25.45;;;12.13;;
58466;SDS011;44255;49.244;7.726;2022-12-07T09:06:45;22.88;;;11.02;;
58466;SDS011;44255;49.244;7.726;2022-12-07T09:09:10;29.52;;;14.02;;
58466;SDS011;44255;49.244;7.726;2022-12-07T09:11:37;29.25;;;13.80;;
58466;SDS011;44255;49.244;7.726;2022-12-07T09:14:02;31.50;;;13.40;;
58466;SDS011;44255;49.244;7.726;2022-12-07T09:16:27;25.75;;;11.85;;
58466;SDS011;44255;49.244;7.726;2022-12-07T09:18:53;26.65;;;12.90;;
58466;SDS011;44255;49.244;7.726;2022-12-07T09:21:18;25.75;;;11.93;;
58466;SDS011;44255;49.244;7.726;2022-12-07T09:23:43;26.30;;;12.20;;
58466;SDS011;44255;49.244;7.726;2022-12-07T09:26:09;25.20;;;11.85;;
58466;SDS011;44255;49.244;7.726;2022-12-07T09:31:01;25.08;;;11.93;;
58466;SDS011;44255;49.244;7.726;2022-12-07T09:33:27;26.17;;;12.25;;
58466;SDS011;44255;49.244;7.726;2022-12-07T09:35:53;31.63;;;14.20;;
58466;SDS011;44255;49.244;7.726;2022-12-07T09:38:19;25.08;;;12.93;;
58466;SDS011;44255;49.244;7.726;2022-12-07T09:43:12;30.27;;;15.77;;
58466;SDS011;44255;49.244;7.726;2022-12-07T09:45:39;25.85;;;12.10;;
58466;SDS011;44255;49.244;7.726;2022-12-07T09:48:05;26.35;;;12.40;;
58466;SDS011;44255;49.244;7.726;2022-12-07T09:50:39;22.48;;;10.85;;
58466;SDS011;44255;49.244;7.726;2022-12-07T09:53:08;36.33;;;15.45;;
58466;SDS011;44255;49.244;7.726;2022-12-07T09:55:39;26.90;;;12.43;;
58466;SDS011;44255;49.244;7.726;2022-12-07T09:58:08;24.95;;;10.93;;
58466;SDS011;44255;49.244;7.726;2022-12-07T10:00:40;33.45;;;14.75;;
58466;SDS011;44255;49.244;7.726;2022-12-07T10:03:05;26.50;;;11.60;;
58466;SDS011;44255;49.244;7.726;2022-12-07T10:05:36;39.88;;;16.55;;
58466;SDS011;44255;49.244;7.726;2022-12-07T10:08:07;34.67;;;15.43;;
58466;SDS011;44255;49.244;7.726;2022-12-07T10:10:37;26.05;;;12.23;;
58466;SDS011;44255;49.244;7.726;2022-12-07T10:13:09;23.50;;;11.65;;
58466;SDS011;44255;49.244;7.726;2022-12-07T10:20:45;22.02;;;11.30;;
58466;SDS011;44255;49.244;7.726;2022-12-07T10:23:15;24.80;;;11.30;;
58466;SDS011;44255;49.244;7.726;2022-12-07T10:25:43;24.33;;;12.35;;
58466;SDS011;44255;49.244;7.726;2022-12-07T10:33:28;24.52;;;10.00;;
58466;SDS011;44255;49.244;7.726;2022-12-07T10:36:14;19.50;;;10.85;;
58466;SDS011;44255;49.244;7.726;2022-12-07T10:38:46;22.77;;;11.52;;
58466;SDS011;44255;49.244;7.726;2022-12-07T10:41:31;24.92;;;11.15;;
58466;SDS011;44255;49.244;7.726;2022-12-07T10:43:57;25.17;;;12.93;;
58466;SDS011;44255;49.244;7.726;2022-12-07T10:54:50;19.10;;;9.57;;
58466;SDS011;44255;49.244;7.726;2022-12-07T11:00:03;21.45;;;11.38;;
58466;SDS011;44255;49.244;7.726;2022-12-07T11:05:42;19.90;;;10.95;;
58466;SDS011;44255;49.244;7.726;2022-12-07T11:14:12;22.90;;;10.50;;
58466;SDS011;44255;49.244;7.726;2022-12-07T11:19:32;20.25;;;10.30;;
58466;SDS011;44255;49.244;7.726;2022-12-07T11:22:36;19.52;;;10.30;;
58466;SDS011;44255;49.244;7.726;2022-12-07T11:25:27;22.15;;;10.65;;
58466;SDS011;44255;49.244;7.726;2022-12-07T11:28:07;20.05;;;10.45;;
58466;SDS011;44255;49.244;7.726;2022-12-07T11:30:42;22.42;;;11.30;;
58466;SDS011;44255;49.244;7.726;2022-12-07T11:33:32;23.55;;;12.00;;
58466;SDS011;44255;49.244;7.726;2022-12-07T11:36:16;21.25;;;11.60;;
58466;SDS011;44255;49.244;7.726;2022-12-07T11:39:02;23.05;;;10.63;;
58466;SDS011;44255;49.244;7.726;2022-12-07T11:41:37;22.33;;;10.00;;
58466;SDS011;44255;49.244;7.726;2022-12-07T11:44:15;24.50;;;12.32;;
58466;SDS011;44255;49.244;7.726;2022-12-07T11:46:58;22.42;;;11.05;;
58466;SDS011;44255;49.244;7.726;2022-12-07T11:52:47;19.77;;;10.20;;
58466;SDS011;44255;49.244;7.726;2022-12-07T11:58:03;19.83;;;9.52;;
58466;SDS011;44255;49.244;7.726;2022-12-07T12:03:09;16.83;;;7.97;;
58466;SDS011;44255;49.244;7.726;2022-12-07T12:05:40;16.17;;;8.75;;
58466;SDS011;44255;49.244;7.726;2022-12-07T12:08:13;18.03;;;8.57;;
58466;SDS011;44255;49.244;7.726;2022-12-07T12:10:50;18.73;;;10.30;;
58466;SDS011;44255;49.244;7.726;2022-12-07T12:13:43;17.35;;;8.45;;
58466;SDS011;44255;49.244;7.726;2022-12-07T12:19:24;17.88;;;9.48;;
58466;SDS011;44255;49.244;7.726;2022-12-07T12:21:57;17.98;;;9.52;;
58466;SDS011;44255;49.244;7.726;2022-12-07T12:24:47;19.02;;;10.43;;
58466;SDS011;44255;49.244;7.726;2022-12-07T12:27:23;19.98;;;10.05;;
58466;SDS011;44255;49.244;7.726;2022-12-07T12:29:55;19.55;;;10.57;;
58466;SDS011;44255;49.244;7.726;2022-12-07T12:32:29;17.85;;;9.05;;
58466;SDS011;44255;49.244;7.726;2022-12-07T12:40:58;21.13;;;11.10;;
58466;SDS011;44255;49.244;7.726;2022-12-07T12:43:44;17.80;;;9.25;;
58466;SDS011;44255;49.244;7.726;2022-12-07T12:49:37;19.50;;;10.27;;
58466;SDS011;44255;49.244;7.726;2022-12-07T12:54:38;18.27;;;9.18;;
58466;SDS011;44255;49.244;7.726;2022-12-07T13:02:27;18.93;;;9.83;;
58466;SDS011;44255;49.244;7.726;2022-12-07T13:15:36;24.40;;;14.88;;
58466;SDS011;44255;49.244;7.726;2022-12-07T13:26:14;25.13;;;11.75;;
58466;SDS011;44255;49.244;7.726;2022-12-07T13:28:43;20.52;;;11.10;;
58466;SDS011;44255;49.244;7.726;2022-12-07T13:33:45;19.67;;;10.43;;
58466;SDS011;44255;49.244;7.726;2022-12-07T13:36:19;23.05;;;11.45;;
58466;SDS011;44255;49.244;7.726;2022-12-07T13:38:56;25.00;;;13.23;;
58466;SDS011;44255;49.244;7.726;2022-12-07T13:41:27;18.38;;;10.80;;
58466;SDS011;44255;49.244;7.726;2022-12-07T13:43:58;22.13;;;10.75;;
58466;SDS011;44255;49.244;7.726;2022-12-07T13:46:33;23.27;;;10.98;;
58466;SDS011;44255;49.244;7.726;2022-12-07T13:49:22;20.33;;;10.45;;
58466;SDS011;44255;49.244;7.726;2022-12-07T13:51:50;18.48;;;10.68;;
58466;SDS011;44255;49.244;7.726;2022-12-07T13:54:16;19.05;;;11.18;;
58466;SDS011;44255;49.244;7.726;2022-12-07T13:56:42;20.45;;;10.43;;
58466;SDS011;44255;49.244;7.726;2022-12-07T13:59:13;22.15;;;10.65;;
58466;SDS011;44255;49.244;7.726;2022-12-07T14:01:45;21.10;;;10.95;;
58466;SDS011;44255;49.244;7.726;2022-12-07T14:04:16;19.00;;;10.27;;
58466;SDS011;44255;49.244;7.726;2022-12-07T14:06:56;18.75;;;9.88;;
58466;SDS011;44255;49.244;7.726;2022-12-07T14:09:26;18.83;;;9.70;;
58466;SDS011;44255;49.244;7.726;2022-12-07T14:11:52;17.95;;;9.40;;
58466;SDS011;44255;49.244;7.726;2022-12-07T14:14:21;18.67;;;9.85;;
58466;SDS011;44255;49.244;7.726;2022-12-07T14:17:00;17.90;;;9.90;;
58466;SDS011;44255;49.244;7.726;2022-12-07T14:22:19;20.15;;;10.32;;
58466;SDS011;44255;49.244;7.726;2022-12-07T14:24:47;17.35;;;9.73;;
58466;SDS011;44255;49.244;7.726;2022-12-07T14:27:19;19.23;;;9.67;;
58466;SDS011;44255;49.244;7.726;2022-12-07T14:29:46;19.02;;;10.32;;
58466;SDS011;44255;49.244;7.726;2022-12-07T14:32:19;18.92;;;9.23;;
58466;SDS011;44255;49.244;7.726;2022-12-07T14:34:53;24.23;;;12.88;;
58466;SDS011;44255;49.244;7.726;2022-12-07T14:37:24;20.67;;;10.98;;
58466;SDS011;44255;49.244;7.726;2022-12-07T14:39:50;18.05;;;10.13;;
58466;SDS011;44255;49.244;7.726;2022-12-07T14:42:15;19.02;;;9.30;;
58466;SDS011;44255;49.244;7.726;2022-12-07T14:44:40;14.52;;;8.45;;
58466;SDS011;44255;49.244;7.726;2022-12-07T14:47:08;15.77;;;8.87;;
58466;SDS011;44255;49.244;7.726;2022-12-07T14:49:34;15.55;;;8.13;;
58466;SDS011;44255;49.244;7.726;2022-12-07T14:52:00;15.47;;;8.17;;
58466;SDS011;44255;49.244;7.726;2022-12-07T14:54:25;16.17;;;7.40;;
58466;SDS011;44255;49.244;7.726;2022-12-07T14:56:55;15.40;;;7.80;;
58466;SDS011;44255;49.244;7.726;2022-12-07T14:59:20;14.13;;;7.00;;
58466;SDS011;44255;49.244;7.726;2022-12-07T15:01:45;14.03;;;6.83;;
58466;SDS011;44255;49.244;7.726;2022-12-07T15:04:11;12.90;;;6.80;;
58466;SDS011;44255;49.244;7.726;2022-12-07T15:06:36;14.60;;;7.13;;
58466;SDS011;44255;49.244;7.726;2022-12-07T15:09:01;16.15;;;8.80;;
58466;SDS011;44255;49.244;7.726;2022-12-07T15:11:27;17.15;;;7.63;;
58466;SDS011;44255;49.244;7.726;2022-12-07T15:13:53;12.38;;;8.05;;
58466;SDS011;44255;49.244;7.726;2022-12-07T15:16:33;14.70;;;7.05;;
58466;SDS011;44255;49.244;7.726;2022-12-07T15:19:00;15.93;;;7.68;;
58466;SDS011;44255;49.244;7.726;2022-12-07T15:21:25;10.43;;;6.27;;
58466;SDS011;44255;49.244;7.726;2022-12-07T15:23:50;10.10;;;6.60;;
58466;SDS011;44255;49.244;7.726;2022-12-07T15:26:16;13.30;;;7.57;;
58466;SDS011;44255;49.244;7.726;2022-12-07T15:28:42;10.60;;;6.85;;
58466;SDS011;44255;49.244;7.726;2022-12-07T15:31:14;11.90;;;5.93;;
58466;SDS011;44255;49.244;7.726;2022-12-07T15:33:41;13.65;;;8.50;;
58466;SDS011;44255;49.244;7.726;2022-12-07T15:36:07;15.93;;;8.60;;
58466;SDS011;44255;49.244;7.726;2022-12-07T15:38:32;12.90;;;7.10;;
58466;SDS011;44255;49.244;7.726;2022-12-07T15:40:57;13.07;;;7.10;;
58466;SDS011;44255;49.244;7.726;2022-12-07T15:43:23;12.57;;;7.53;;
58466;SDS011;44255;49.244;7.726;2022-12-07T15:46:06;15.80;;;9.90;;
58466;SDS011;44255;49.244;7.726;2022-12-07T15:48:32;18.27;;;9.18;;
58466;SDS011;44255;49.244;7.726;2022-12-07T15:51:02;15.23;;;8.43;;
58466;SDS011;44255;49.244;7.726;2022-12-07T15:53:31;16.02;;;8.98;;
58466;SDS011;44255;49.244;7.726;2022-12-07T15:55:57;15.98;;;8.63;;
58466;SDS011;44255;49.244;7.726;2022-12-07T15:58:22;14.13;;;6.57;;
58466;SDS011;44255;49.244;7.726;2022-12-07T16:00:47;12.18;;;6.50;;
58466;SDS011;44255;49.244;7.726;2022-12-07T16:03:13;10.93;;;5.97;;
58466;SDS011;44255;49.244;7.726;2022-12-07T16:05:38;14.95;;;6.50;;
58466;SDS011;44255;49.244;7.726;2022-12-07T16:08:04;10.65;;;5.97;;
58466;SDS011;44255;49.244;7.726;2022-12-07T16:10:29;17.15;;;8.10;;
58466;SDS011;44255;49.244;7.726;2022-12-07T16:12:55;16.42;;;8.73;;
58466;SDS011;44255;49.244;7.726;2022-12-07T16:15:20;17.10;;;9.37;;
58466;SDS011;44255;49.244;7.726;2022-12-07T16:17:45;11.55;;;5.95;;
58466;SDS011;44255;49.244;7.726;2022-12-07T16:20:11;10.83;;;6.53;;
58466;SDS011;44255;49.244;7.726;2022-12-07T16:22:36;12.27;;;7.13;;
58466;SDS011;44255;49.244;7.726;2022-12-07T16:25:02;11.87;;;7.00;;
58466;SDS011;44255;49.244;7.726;2022-12-07T16:27:28;14.48;;;8.55;;
58466;SDS011;44255;49.244;7.726;2022-12-07T16:29:53;15.67;;;8.13;;
58466;SDS011;44255;49.244;7.726;2022-12-07T16:32:18;25.43;;;13.43;;
58466;SDS011;44255;49.244;7.726;2022-12-07T16:34:43;16.03;;;8.97;;
58466;SDS011;44255;49.244;7.726;2022-12-07T16:37:09;16.33;;;9.03;;
58466;SDS011;44255;49.244;7.726;2022-12-07T16:39:34;19.00;;;8.90;;
58466;SDS011;44255;49.244;7.726;2022-12-07T16:42:00;15.30;;;9.52;;
58466;SDS011;44255;49.244;7.726;2022-12-07T16:44:25;13.07;;;8.02;;
58466;SDS011;44255;49.244;7.726;2022-12-07T16:46:50;12.43;;;6.57;;
58466;SDS011;44255;49.244;7.726;2022-12-07T16:49:16;28.52;;;14.00;;
58466;SDS011;44255;49.244;7.726;2022-12-07T16:51:41;10.90;;;6.07;;
58466;SDS011;44255;49.244;7.726;2022-12-07T16:56:34;12.32;;;6.53;;
58466;SDS011;44255;49.244;7.726;2022-12-07T16:58:59;16.83;;;8.73;;
58466;SDS011;44255;49.244;7.726;2022-12-07T17:01:25;33.42;;;16.17;;
58466;SDS011;44255;49.244;7.726;2022-12-07T17:03:52;16.13;;;8.35;;
58466;SDS011;44255;49.244;7.726;2022-12-07T17:06:19;14.93;;;8.07;;
58466;SDS011;44255;49.244;7.726;2022-12-07T17:08:47;13.23;;;7.35;;
58466;SDS011;44255;49.244;7.726;2022-12-07T17:11:14;14.18;;;7.43;;
58466;SDS011;44255;49.244;7.726;2022-12-07T17:13:43;13.27;;;7.15;;
58466;SDS011;44255;49.244;7.726;2022-12-07T17:16:28;25.50;;;12.32;;
58466;SDS011;44255;49.244;7.726;2022-12-07T17:18:54;34.17;;;14.73;;
58466;SDS011;44255;49.244;7.726;2022-12-07T17:21:19;37.53;;;16.35;;
58466;SDS011;44255;49.244;7.726;2022-12-07T17:23:45;19.92;;;9.95;;
58466;SDS011;44255;49.244;7.726;2022-12-07T17:26:12;19.35;;;8.55;;
58466;SDS011;44255;49.244;7.726;2022-12-07T17:28:40;18.38;;;8.70;;
58466;SDS011;44255;49.244;7.726;2022-12-07T17:31:10;17.17;;;8.43;;
58466;SDS011;44255;49.244;7.726;2022-12-07T17:33:36;18.17;;;9.88;;
58466;SDS011;44255;49.244;7.726;2022-12-07T17:36:12;16.52;;;8.95;;
58466;SDS011;44255;49.244;7.726;2022-12-07T17:38:39;15.85;;;9.18;;
58466;SDS011;44255;49.244;7.726;2022-12-07T17:41:08;32.03;;;15.82;;
58466;SDS011;44255;49.244;7.726;2022-12-07T17:43:35;21.25;;;9.98;;
58466;SDS011;44255;49.244;7.726;2022-12-07T17:46:05;24.33;;;11.97;;
58466;SDS011;44255;49.244;7.726;2022-12-07T17:48:31;33.40;;;14.65;;
58466;SDS011;44255;49.244;7.726;2022-12-07T17:50:59;25.13;;;11.70;;
58466;SDS011;44255;49.244;7.726;2022-12-07T17:53:43;16.92;;;8.93;;
58466;SDS011;44255;49.244;7.726;2022-12-07T17:56:08;19.33;;;10.23;;
58466;SDS011;44255;49.244;7.726;2022-12-07T17:58:33;30.00;;;12.30;;
58466;SDS011;44255;49.244;7.726;2022-12-07T18:00:59;26.55;;;12.05;;
58466;SDS011;44255;49.244;7.726;2022-12-07T18:03:25;23.40;;;11.00;;
58466;SDS011;44255;49.244;7.726;2022-12-07T18:05:50;24.08;;;11.95;;
58466;SDS011;44255;49.244;7.726;2022-12-07T18:08:15;21.63;;;11.38;;
58466;SDS011;44255;49.244;7.726;2022-12-07T18:10:40;25.35;;;13.63;;
58466;SDS011;44255;49.244;7.726;2022-12-07T18:13:06;28.52;;;13.23;;
58466;SDS011;44255;49.244;7.726;2022-12-07T18:15:56;28.15;;;12.25;;
58466;SDS011;44255;49.244;7.726;2022-12-07T18:18:21;25.58;;;11.52;;
58466;SDS011;44255;49.244;7.726;2022-12-07T18:20:47;23.33;;;11.40;;
58466;SDS011;44255;49.244;7.726;2022-12-07T18:23:12;24.07;;;10.70;;
58466;SDS011;44255;49.244;7.726;2022-12-07T18:25:38;22.85;;;11.25;;
58466;SDS011;44255;49.244;7.726;2022-12-07T18:28:03;24.00;;;11.32;;
58466;SDS011;44255;49.244;7.726;2022-12-07T18:30:28;28.13;;;13.35;;
58466;SDS011;44255;49.244;7.726;2022-12-07T18:32:54;28.25;;;13.98;;
58466;SDS011;44255;49.244;7.726;2022-12-07T18:35:19;24.58;;;12.60;;
58466;SDS011;44255;49.244;7.726;2022-12-07T18:37:44;21.58;;;12.18;;
58466;SDS011;44255;49.244;7.726;2022-12-07T18:40:10;29.20;;;13.82;;
58466;SDS011;44255;49.244;7.726;2022-12-07T18:42:35;24.20;;;12.90;;
58466;SDS011;44255;49.244;7.726;2022-12-07T18:45:01;28.38;;;13.43;;
58466;SDS011;44255;49.244;7.726;2022-12-07T18:47:26;28.25;;;14.15;;
58466;SDS011;44255;49.244;7.726;2022-12-07T18:52:16;30.77;;;15.25;;
58466;SDS011;44255;49.244;7.726;2022-12-07T18:54:42;34.17;;;18.02;;
58466;SDS011;44255;49.244;7.726;2022-12-07T18:57:07;29.52;;;14.05;;
58466;SDS011;44255;49.244;7.726;2022-12-07T18:59:32;29.30;;;15.67;;
58466;SDS011;44255;49.244;7.726;2022-12-07T19:02:14;18.90;;;11.50;;
58466;SDS011;44255;49.244;7.726;2022-12-07T19:04:40;25.13;;;11.25;;
58466;SDS011;44255;49.244;7.726;2022-12-07T19:07:05;26.02;;;12.13;;
58466;SDS011;44255;49.244;7.726;2022-12-07T19:09:31;30.23;;;16.25;;
58466;SDS011;44255;49.244;7.726;2022-12-07T19:11:56;38.08;;;17.85;;
58466;SDS011;44255;49.244;7.726;2022-12-07T19:14:28;41.33;;;18.30;;
58466;SDS011;44255;49.244;7.726;2022-12-07T19:16:56;47.08;;;20.13;;
58466;SDS011;44255;49.244;7.726;2022-12-07T19:19:24;34.83;;;18.08;;
58466;SDS011;44255;49.244;7.726;2022-12-07T19:21:54;37.38;;;16.83;;
58466;SDS011;44255;49.244;7.726;2022-12-07T19:24:20;34.95;;;18.80;;
58466;SDS011;44255;49.244;7.726;2022-12-07T19:26:45;38.78;;;18.55;;
58466;SDS011;44255;49.244;7.726;2022-12-07T19:29:10;37.00;;;17.23;;
58466;SDS011;44255;49.244;7.726;2022-12-07T19:31:36;40.10;;;15.15;;
58466;SDS011;44255;49.244;7.726;2022-12-07T19:34:01;43.35;;;19.13;;
58466;SDS011;44255;49.244;7.726;2022-12-07T19:36:31;39.47;;;17.15;;
58466;SDS011;44255;49.244;7.726;2022-12-07T19:38:57;47.43;;;19.43;;
58466;SDS011;44255;49.244;7.726;2022-12-07T19:41:22;47.83;;;19.75;;
58466;SDS011;44255;49.244;7.726;2022-12-07T19:44:04;40.40;;;18.90;;
58466;SDS011;44255;49.244;7.726;2022-12-07T19:46:33;48.00;;;19.15;;
58466;SDS011;44255;49.244;7.726;2022-12-07T19:48:59;30.58;;;14.30;;
58466;SDS011;44255;49.244;7.726;2022-12-07T19:51:25;34.33;;;15.25;;
58466;SDS011;44255;49.244;7.726;2022-12-07T19:53:51;42.05;;;16.85;;
58466;SDS011;44255;49.244;7.726;2022-12-07T19:56:17;50.47;;;18.80;;
58466;SDS011;44255;49.244;7.726;2022-12-07T19:58:44;46.85;;;18.60;;
58466;SDS011;44255;49.244;7.726;2022-12-07T20:01:10;53.38;;;19.65;;
58466;SDS011;44255;49.244;7.726;2022-12-07T20:03:35;53.55;;;20.52;;
58466;SDS011;44255;49.244;7.726;2022-12-07T20:06:00;38.30;;;16.08;;
58466;SDS011;44255;49.244;7.726;2022-12-07T20:08:26;36.15;;;15.35;;
58466;SDS011;44255;49.244;7.726;2022-12-07T20:10:51;36.75;;;16.70;;
58466;SDS011;44255;49.244;7.726;2022-12-07T20:13:17;55.55;;;22.42;;
58466;SDS011;44255;49.244;7.726;2022-12-07T20:15:57;53.67;;;22.05;;
58466;SDS011;44255;49.244;7.726;2022-12-07T20:18:27;54.60;;;23.00;;
58466;SDS011;44255;49.244;7.726;2022-12-07T20:20:53;57.78;;;22.08;;
58466;SDS011;44255;49.244;7.726;2022-12-07T20:23:20;51.90;;;21.08;;
58466;SDS011;44255;49.244;7.726;2022-12-07T20:25:46;49.60;;;23.10;;
58466;SDS011;44255;49.244;7.726;2022-12-07T20:30:36;45.42;;;20.77;;
58466;SDS011;44255;49.244;7.726;2022-12-07T20:35:27;39.13;;;18.23;;
58466;SDS011;44255;49.244;7.726;2022-12-07T20:37:53;38.25;;;17.83;;
58466;SDS011;44255;49.244;7.726;2022-12-07T20:40:18;36.58;;;18.88;;
58466;SDS011;44255;49.244;7.726;2022-12-07T20:45:09;39.22;;;18.00;;
58466;SDS011;44255;49.244;7.726;2022-12-07T20:47:36;48.92;;;21.23;;
58466;SDS011;44255;49.244;7.726;2022-12-07T20:50:02;39.75;;;19.65;;
58466;SDS011;44255;49.244;7.726;2022-12-07T20:52:29;45.78;;;20.60;;